Time;durP1;ratioP1;P1;durP2;ratioP2;P2;SDS_P1;SDS_P2;PMS_P1;PMS_P2;Temp;Humidity;BMP_temperature;BMP_pressure;BME280_temperature;BME280_humidity;BME280_pressure;Samples;Min_cycle;Max_cycle;Signal;HPM_P1;HPM_P2
2023/09/13 00:00:09;;;;;;;;;;;24.20;93.30;;;;;;5014054;28;19944;-54
2023/09/13 00:02:35;;;;;;;;;;;24.20;93.30;;;;;;5014349;28;20256;-53
2023/09/13 00:05:01;;;;;;;;;;;24.20;93.30;;;;;;5014365;28;20008;-54
2023/09/13 00:07:27;;;;;;;;;;;24.20;93.30;;;;;;5014656;28;19959;-54
2023/09/13 00:09:52;;;;;;;;;;;24.20;93.30;;;;;;5014333;28;19906;-54
2023/09/13 00:12:18;;;;;;;;;;;24.20;93.30;;;;;;5014602;28;20354;-50
2023/09/13 00:14:43;;;;;;;;;;;24.20;93.30;;;;;;5014260;28;19906;-54
2023/09/13 00:17:09;;;;;;;;;;;24.20;93.30;;;;;;5014011;28;19905;-51
2023/09/13 00:19:37;;;;;;;;;;;24.20;93.30;;;;;;5013938;28;19971;-50
2023/09/13 00:22:03;;;;;;;;;;;24.20;93.30;;;;;;5014256;28;20264;-54
2023/09/13 00:24:28;;;;;;;;;;;24.20;93.30;;;;;;5014141;28;19914;-51
2023/09/13 00:26:54;;;;;;;;;;;24.20;93.30;;;;;;5014207;28;20387;-52
2023/09/13 00:29:19;;;;;;;;;;;24.20;93.30;;;;;;5014108;28;19998;-52
2023/09/13 00:31:45;;;;;;;;;;;24.20;93.30;;;;;;5014130;28;19912;-51
2023/09/13 00:34:10;;;;;;;;;;;24.20;93.30;;;;;;5014135;28;19912;-55
2023/09/13 00:36:36;;;;;;;;;;;24.20;93.30;;;;;;5017504;28;20241;-50
2023/09/13 00:39:04;;;;;;;;;;;24.20;93.30;;;;;;5017660;28;20375;-53
2023/09/13 00:41:30;;;;;;;;;;;24.10;93.30;;;;;;5017598;28;19905;-54
2023/09/13 00:43:56;;;;;;;;;;;24.20;93.30;;;;;;5017495;28;19914;-54
2023/09/13 00:46:21;;;;;;;;;;;24.10;93.30;;;;;;5017720;28;20336;-53
2023/09/13 00:48:47;;;;;;;;;;;24.10;93.30;;;;;;5017807;28;19925;-54
2023/09/13 00:51:12;;;;;;;;;;;24.20;93.30;;;;;;5018005;28;19960;-53
2023/09/13 00:53:38;;;;;;;;;;;24.10;93.30;;;;;;5017362;28;19913;-53
2023/09/13 00:56:06;;;;;;;;;;;24.20;93.30;;;;;;5032527;28;19910;-54
2023/09/13 00:58:32;;;;;;;;;;;24.10;93.30;;;;;;5017554;28;19906;-51
2023/09/13 01:00:57;;;;;;;;;;;24.20;93.40;;;;;;5017559;28;19909;-51
2023/09/13 01:03:23;;;;;;;;;;;24.20;93.40;;;;;;5017453;28;20317;-53
2023/09/13 01:05:52;;;;;;;;;;;24.20;93.40;;;;;;5017477;28;20016;-55
2023/09/13 01:08:19;;;;;;;;;;;24.20;93.40;;;;;;5017815;28;19976;-51
2023/09/13 01:10:45;;;;;;;;;;;24.10;93.40;;;;;;5017149;28;19945;-51
2023/09/13 01:13:10;;;;;;;;;;;24.20;93.40;;;;;;5017289;28;19952;-50
2023/09/13 01:15:38;;;;;;;;;;;24.20;93.40;;;;;;5017226;28;19905;-52
2023/09/13 01:18:03;;;;;;;;;;;24.10;93.40;;;;;;5017195;28;19905;-53
2023/09/13 01:20:58;;;;;;;;;;;24.20;93.40;;;;;;5017171;28;20352;-53
2023/09/13 01:23:37;;;;;;;;;;;24.20;93.40;;;;;;4980448;28;20385;-54
2023/09/13 01:26:18;;;;;;;;;;;24.20;93.40;;;;;;5032234;28;20424;-54
2023/09/13 01:28:48;;;;;;;;;;;24.20;93.40;;;;;;5016700;28;20000;-54
2023/09/13 01:31:17;;;;;;;;;;;24.20;93.40;;;;;;5016627;28;19944;-52
2023/09/13 01:33:42;;;;;;;;;;;24.20;93.40;;;;;;5016645;28;19911;-50
2023/09/13 01:36:08;;;;;;;;;;;24.20;93.40;;;;;;5017180;28;20388;-51
2023/09/13 01:38:34;;;;;;;;;;;24.20;93.40;;;;;;5016543;28;19906;-50
2023/09/13 01:41:04;;;;;;;;;;;24.20;93.40;;;;;;5016770;28;20013;-56
2023/09/13 01:43:31;;;;;;;;;;;24.20;93.40;;;;;;5015316;28;20299;-54
2023/09/13 01:45:56;;;;;;;;;;;24.20;93.40;;;;;;5016554;28;19929;-49
2023/09/13 01:48:23;;;;;;;;;;;24.20;93.40;;;;;;5059589;28;20328;-54
2023/09/13 01:50:49;;;;;;;;;;;24.10;93.40;;;;;;5036349;28;19912;-54
2023/09/13 01:53:14;;;;;;;;;;;24.10;93.40;;;;;;5036374;28;19909;-52
2023/09/13 01:55:40;;;;;;;;;;;24.10;93.40;;;;;;5036365;28;19905;-53
2023/09/13 01:58:05;;;;;;;;;;;24.20;93.40;;;;;;5036230;28;19905;-52
2023/09/13 02:00:31;;;;;;;;;;;24.10;93.40;;;;;;5036538;28;19905;-53
2023/09/13 02:02:56;;;;;;;;;;;24.10;93.40;;;;;;5068053;28;19913;-52
2023/09/13 02:05:22;;;;;;;;;;;24.10;93.40;;;;;;5036448;28;20280;-50
2023/09/13 02:07:47;;;;;;;;;;;24.20;93.40;;;;;;5035993;28;19982;-53
2023/09/13 02:10:13;;;;;;;;;;;24.10;93.40;;;;;;5035732;28;19912;-54
2023/09/13 02:12:38;;;;;;;;;;;24.10;93.40;;;;;;5035670;28;20405;-53
2023/09/13 02:15:04;;;;;;;;;;;24.10;93.40;;;;;;5035987;28;19906;-54
2023/09/13 02:17:31;;;;;;;;;;;24.10;93.40;;;;;;5036009;28;19913;-54
2023/09/13 02:19:56;;;;;;;;;;;24.20;93.40;;;;;;5035901;28;19999;-54
2023/09/13 02:22:21;;;;;;;;;;;24.10;93.40;;;;;;5035850;28;19951;-54
2023/09/13 02:24:47;;;;;;;;;;;24.10;93.40;;;;;;5035451;28;20367;-54
2023/09/13 02:27:12;;;;;;;;;;;24.20;93.50;;;;;;5035490;28;19912;-51
2023/09/13 02:29:38;;;;;;;;;;;24.20;93.50;;;;;;5036028;28;19905;-51
2023/09/13 02:32:03;;;;;;;;;;;24.10;93.40;;;;;;5035747;28;19951;-53
2023/09/13 02:34:29;;;;;;;;;;;24.20;93.50;;;;;;5035380;28;20260;-52
2023/09/13 02:36:54;;;;;;;;;;;24.10;93.40;;;;;;5035289;28;20053;-52
2023/09/13 02:39:33;;;;;;;;;;;24.10;93.40;;;;;;5035275;28;19912;-53
2023/09/13 02:41:59;;;;;;;;;;;24.10;93.40;;;;;;5035534;28;19968;-53
2023/09/13 02:44:24;;;;;;;;;;;24.10;93.40;;;;;;5035382;28;20011;-53
2023/09/13 02:46:50;;;;;;;;;;;24.10;93.40;;;;;;5032260;28;19921;-54
2023/09/13 02:49:16;;;;;;;;;;;24.10;93.40;;;;;;5015638;28;19906;-51
2023/09/13 02:51:42;;;;;;;;;;;24.10;93.40;;;;;;5015509;28;19927;-51
2023/09/13 02:54:07;;;;;;;;;;;24.10;93.40;;;;;;5015501;28;19952;-55
2023/09/13 02:56:33;;;;;;;;;;;24.10;93.40;;;;;;5015152;28;19909;-54
2023/09/13 02:58:58;;;;;;;;;;;24.10;93.40;;;;;;5015435;28;19936;-54
2023/09/13 03:01:24;;;;;;;;;;;24.10;93.40;;;;;;5030565;28;19967;-52
2023/09/13 03:03:49;;;;;;;;;;;24.10;93.40;;;;;;5015187;28;19918;-54
2023/09/13 03:06:18;;;;;;;;;;;24.10;93.40;;;;;;5015023;28;19913;-51
2023/09/13 03:08:43;;;;;;;;;;;24.10;93.40;;;;;;5014917;28;19996;-54
2023/09/13 03:11:12;;;;;;;;;;;24.10;93.40;;;;;;5030022;28;19936;-54
2023/09/13 03:13:38;;;;;;;;;;;24.10;93.40;;;;;;5015155;28;19905;-53
2023/09/13 03:16:30;;;;;;;;;;;24.10;93.40;;;;;;5014813;28;19913;-53
2023/09/13 03:18:55;;;;;;;;;;;24.10;93.40;;;;;;5012956;28;19932;-51
2023/09/13 03:21:21;;;;;;;;;;;24.10;93.40;;;;;;5030445;28;20337;-51
2023/09/13 03:23:51;;;;;;;;;;;24.10;93.40;;;;;;5014548;28;19914;-52
2023/09/13 03:26:23;;;;;;;;;;;24.10;93.40;;;;;;5015217;28;20337;-49
2023/09/13 03:28:50;;;;;;;;;;;24.10;93.40;;;;;;5015173;28;19924;-52
2023/09/13 03:31:16;;;;;;;;;;;24.10;93.40;;;;;;5015125;28;19912;-54
2023/09/13 03:33:42;;;;;;;;;;;24.10;93.40;;;;;;5014758;28;20002;-51
2023/09/13 03:36:08;;;;;;;;;;;24.10;93.40;;;;;;5014440;28;20268;-51
2023/09/13 03:38:38;;;;;;;;;;;24.10;93.40;;;;;;5014806;28;19912;-54
2023/09/13 03:41:13;;;;;;;;;;;24.10;93.40;;;;;;5014763;28;19905;-53
2023/09/13 03:43:39;;;;;;;;;;;24.10;93.40;;;;;;5014361;28;20008;-50
2023/09/13 03:46:05;;;;;;;;;;;24.10;93.40;;;;;;5014544;28;19952;-53
2023/09/13 03:48:31;;;;;;;;;;;24.10;93.40;;;;;;5014644;28;20257;-51
2023/09/13 03:50:57;;;;;;;;;;;24.10;93.40;;;;;;5014589;28;20332;-54
2023/09/13 03:53:23;;;;;;;;;;;24.10;93.40;;;;;;5014566;28;19952;-55
2023/09/13 03:55:48;;;;;;;;;;;24.10;93.40;;;;;;5014188;28;20016;-52
2023/09/13 03:58:14;;;;;;;;;;;24.10;93.40;;;;;;5014526;28;19905;-50
2023/09/13 04:00:39;;;;;;;;;;;24.10;93.40;;;;;;5014493;28;20259;-50
2023/09/13 04:03:05;;;;;;;;;;;24.10;93.40;;;;;;5014601;28;19916;-54
2023/09/13 04:05:30;;;;;;;;;;;24.10;93.40;;;;;;5014135;28;20028;-55
2023/09/13 04:07:56;;;;;;;;;;;24.10;93.40;;;;;;5029549;28;19913;-47
2023/09/13 04:10:22;;;;;;;;;;;24.10;93.70;;;;;;5017444;28;20542;-50
2023/09/13 04:12:48;;;;;;;;;;;24.10;93.40;;;;;;5020857;28;19906;-51
2023/09/13 04:15:13;;;;;;;;;;;24.10;93.40;;;;;;5020720;28;19905;-52
2023/09/13 04:17:39;;;;;;;;;;;24.10;93.40;;;;;;5020754;28;20295;-53
2023/09/13 04:20:05;;;;;;;;;;;24.10;93.40;;;;;;5020815;28;20338;-52
2023/09/13 04:22:31;;;;;;;;;;;24.10;93.40;;;;;;5020558;28;19905;-52
2023/09/13 04:24:56;;;;;;;;;;;24.10;93.40;;;;;;5020625;28;20261;-52
2023/09/13 04:27:22;;;;;;;;;;;24.10;93.40;;;;;;5020500;28;19905;-51
2023/09/13 04:29:48;;;;;;;;;;;24.10;93.50;;;;;;5020308;28;19997;-53
2023/09/13 04:32:13;;;;;;;;;;;24.10;93.50;;;;;;5020645;28;19929;-54
2023/09/13 04:34:39;;;;;;;;;;;24.10;93.40;;;;;;5020490;28;20264;-51
2023/09/13 04:37:05;;;;;;;;;;;24.10;93.40;;;;;;5020618;28;19913;-52
2023/09/13 04:39:31;;;;;;;;;;;24.10;93.40;;;;;;5020336;28;19913;-51
2023/09/13 04:41:58;;;;;;;;;;;24.10;93.40;;;;;;5020336;28;19906;-53
2023/09/13 04:44:23;;;;;;;;;;;24.10;93.50;;;;;;5035759;28;19920;-52
2023/09/13 04:46:49;;;;;;;;;;;24.10;93.40;;;;;;5035503;28;19922;-51
2023/09/13 04:49:14;;;;;;;;;;;24.10;93.40;;;;;;5020602;28;19916;-49
2023/09/13 04:51:40;;;;;;;;;;;24.10;93.40;;;;;;5020483;28;19906;-50
2023/09/13 04:54:05;;;;;;;;;;;24.10;93.50;;;;;;5020312;28;19905;-52
2023/09/13 04:56:31;;;;;;;;;;;24.10;93.50;;;;;;5020042;28;20268;-52
2023/09/13 04:58:56;;;;;;;;;;;24.10;93.50;;;;;;5019019;28;19953;-53
2023/09/13 05:01:23;;;;;;;;;;;24.10;93.50;;;;;;5019248;28;21444;-52
2023/09/13 05:03:49;;;;;;;;;;;24.10;93.50;;;;;;5020004;28;19967;-54
2023/09/13 05:06:15;;;;;;;;;;;24.10;93.50;;;;;;5020052;28;19913;-53
2023/09/13 05:08:41;;;;;;;;;;;24.10;93.50;;;;;;5020161;28;19956;-51
2023/09/13 05:11:06;;;;;;;;;;;24.10;93.50;;;;;;5019874;28;20336;-53
2023/09/13 05:13:32;;;;;;;;;;;24.10;93.50;;;;;;5019895;28;19909;-52
2023/09/13 05:15:58;;;;;;;;;;;24.10;93.50;;;;;;5018748;28;19912;-50
2023/09/13 05:18:23;;;;;;;;;;;24.10;93.50;;;;;;5035371;28;19910;-51
2023/09/13 05:20:49;;;;;;;;;;;24.10;93.50;;;;;;5019498;28;20022;-52
2023/09/13 05:23:14;;;;;;;;;;;24.10;93.50;;;;;;5015917;28;20420;-53
2023/09/13 05:25:44;;;;;;;;;;;24.10;93.50;;;;;;5016990;28;19913;-53
2023/09/13 05:28:09;;;;;;;;;;;24.10;93.50;;;;;;5016599;28;20252;-52
2023/09/13 05:30:35;;;;;;;;;;;24.10;93.50;;;;;;5016727;28;19909;-50
2023/09/13 05:33:01;;;;;;;;;;;24.10;93.70;;;;;;5015395;28;19906;-53
2023/09/13 05:35:29;;;;;;;;;;;24.10;93.50;;;;;;5016624;28;20251;-52
2023/09/13 05:37:54;;;;;;;;;;;24.10;93.50;;;;;;5016365;28;19956;-54
2023/09/13 05:40:20;;;;;;;;;;;24.10;93.50;;;;;;5016573;28;20307;-54
2023/09/13 05:42:45;;;;;;;;;;;24.10;93.50;;;;;;5016787;28;19913;-50
2023/09/13 05:45:11;;;;;;;;;;;24.10;93.50;;;;;;5016333;28;19909;-54
2023/09/13 05:47:36;;;;;;;;;;;24.10;93.50;;;;;;5016342;28;19965;-51
2023/09/13 05:50:02;;;;;;;;;;;24.10;93.50;;;;;;5016540;28;20264;-51
2023/09/13 05:52:27;;;;;;;;;;;24.00;93.50;;;;;;5016755;28;19952;-55
2023/09/13 05:54:53;;;;;;;;;;;24.10;93.50;;;;;;5016045;28;19964;-54
2023/09/13 05:57:18;;;;;;;;;;;24.10;93.50;;;;;;5016287;28;20248;-51
2023/09/13 05:59:44;;;;;;;;;;;24.00;93.40;;;;;;5015944;28;19909;-53
2023/09/13 06:02:09;;;;;;;;;;;24.10;93.50;;;;;;5031361;28;19912;-54
2023/09/13 06:04:35;;;;;;;;;;;24.10;93.50;;;;;;5031312;28;19921;-54
2023/09/13 06:07:00;;;;;;;;;;;24.10;93.50;;;;;;5015971;28;20341;-51
2023/09/13 06:09:26;;;;;;;;;;;24.10;93.50;;;;;;5019291;28;19912;-50
2023/09/13 06:11:51;;;;;;;;;;;24.10;93.50;;;;;;5035397;28;19909;-51
2023/09/13 06:14:19;;;;;;;;;;;24.10;93.50;;;;;;5036958;28;20376;-55
2023/09/13 06:16:44;;;;;;;;;;;24.10;93.50;;;;;;5042838;28;19940;-52
2023/09/13 06:19:10;;;;;;;;;;;24.10;93.50;;;;;;5037556;28;20437;-54
2023/09/13 06:21:36;;;;;;;;;;;24.10;93.50;;;;;;5045005;28;19999;-50
2023/09/13 06:24:02;;;;;;;;;;;24.00;93.50;;;;;;5033954;28;19939;-49
2023/09/13 06:26:27;;;;;;;;;;;24.10;93.50;;;;;;5031480;28;19904;-47
2023/09/13 06:28:52;;;;;;;;;;;24.10;93.50;;;;;;5035403;28;20314;-51
2023/09/13 06:31:18;;;;;;;;;;;24.10;93.50;;;;;;5034072;28;19905;-49
2023/09/13 06:33:43;;;;;;;;;;;24.00;93.50;;;;;;5033993;28;19988;-52
2023/09/13 06:36:09;;;;;;;;;;;24.10;93.50;;;;;;5035266;28;19909;-51
2023/09/13 06:38:34;;;;;;;;;;;24.00;93.50;;;;;;5053456;28;19920;-48
2023/09/13 06:41:00;;;;;;;;;;;24.00;93.50;;;;;;5037252;28;20042;-50
2023/09/13 06:43:25;;;;;;;;;;;24.00;93.50;;;;;;5051692;28;20416;-56
2023/09/13 06:45:51;;;;;;;;;;;24.00;93.50;;;;;;5048423;28;19909;-52
2023/09/13 06:48:18;;;;;;;;;;;24.00;93.60;;;;;;5054633;28;20363;-51
2023/09/13 06:50:44;;;;;;;;;;;24.00;93.30;;;;;;5032368;28;20362;-51
2023/09/13 06:53:09;;;;;;;;;;;24.00;93.50;;;;;;5035423;28;19996;-51
2023/09/13 06:55:35;;;;;;;;;;;24.00;93.60;;;;;;5035985;28;19913;-50
2023/09/13 06:58:02;;;;;;;;;;;24.00;93.60;;;;;;5033319;28;19909;-51
2023/09/13 07:00:28;;;;;;;;;;;24.00;93.60;;;;;;5045091;28;20319;-52
2023/09/13 07:02:53;;;;;;;;;;;24.00;93.60;;;;;;5036181;28;20006;-52
2023/09/13 07:05:19;;;;;;;;;;;24.00;93.60;;;;;;5043779;28;19920;-52
2023/09/13 07:07:45;;;;;;;;;;;24.00;93.60;;;;;;5051475;28;19917;-52
2023/09/13 07:10:10;;;;;;;;;;;24.00;93.60;;;;;;5033788;28;19913;-53
2023/09/13 07:12:36;;;;;;;;;;;24.00;93.60;;;;;;5032309;28;19914;-53
2023/09/13 07:15:02;;;;;;;;;;;24.00;93.40;;;;;;5040653;28;19920;-57
2023/09/13 07:17:27;;;;;;;;;;;23.90;92.40;;;;;;5035701;28;19917;-56
2023/09/13 07:19:54;;;;;;;;;;;23.90;92.20;;;;;;5033224;28;19919;-58
2023/09/13 07:22:19;;;;;;;;;;;23.90;92.20;;;;;;5034575;28;19910;-60
2023/09/13 07:24:45;;;;;;;;;;;23.80;92.10;;;;;;5034332;28;19917;-59
2023/09/13 07:27:10;;;;;;;;;;;23.80;92.00;;;;;;5034677;28;19932;-60
2023/09/13 07:29:36;;;;;;;;;;;23.70;92.00;;;;;;5034806;28;20014;-57
2023/09/13 07:32:02;;;;;;;;;;;23.70;92.10;;;;;;5031560;28;19966;-57
2023/09/13 07:34:29;;;;;;;;;;;23.60;92.00;;;;;;5034048;28;19909;-57
2023/09/13 07:36:54;;;;;;;;;;;23.60;92.10;;;;;;5034375;28;20349;-54
2023/09/13 07:39:19;;;;;;;;;;;23.60;92.10;;;;;;5042934;28;19920;-60
2023/09/13 07:41:45;;;;;;;;;;;23.50;92.10;;;;;;5042010;28;20274;-60
2023/09/13 07:44:11;;;;;;;;;;;23.50;92.20;;;;;;5033525;28;19917;-61
2023/09/13 07:46:36;;;;;;;;;;;23.50;92.30;;;;;;5035856;28;19913;-60
2023/09/13 07:49:04;;;;;;;;;;;23.40;92.30;;;;;;5032133;28;20298;-59
2023/09/13 07:51:30;;;;;;;;;;;23.40;92.20;;;;;;5036524;28;19920;-60
2023/09/13 07:54:03;;;;;;;;;;;23.40;92.30;;;;;;5048395;28;19914;-60
2023/09/13 07:56:29;;;;;;;;;;;23.40;92.30;;;;;;5033814;28;19963;-60
2023/09/13 07:58:55;;;;;;;;;;;23.40;92.30;;;;;;5042915;28;19917;-58
2023/09/13 08:01:20;;;;;;;;;;;23.50;92.50;;;;;;5051625;28;19913;-59
2023/09/13 08:03:46;;;;;;;;;;;23.50;92.40;;;;;;5050552;28;20348;-59
2023/09/13 08:06:11;;;;;;;;;;;23.50;92.40;;;;;;5053555;28;19962;-60
2023/09/13 08:08:37;;;;;;;;;;;23.50;92.50;;;;;;5053985;28;20371;-59
2023/09/13 08:11:03;;;;;;;;;;;23.60;92.60;;;;;;5053810;28;19915;-59
2023/09/13 08:13:28;;;;;;;;;;;23.60;92.90;;;;;;5053832;28;20070;-58
2023/09/13 08:15:54;;;;;;;;;;;23.60;92.70;;;;;;5053517;28;20403;-59
2023/09/13 08:18:20;;;;;;;;;;;23.60;92.80;;;;;;5053506;28;19952;-59
2023/09/13 08:20:45;;;;;;;;;;;23.60;92.80;;;;;;5053694;28;19909;-58
2023/09/13 08:23:11;;;;;;;;;;;23.60;92.80;;;;;;5053614;28;19909;-59
2023/09/13 08:25:36;;;;;;;;;;;23.70;92.80;;;;;;5053346;28;20001;-59
2023/09/13 08:28:03;;;;;;;;;;;23.70;92.90;;;;;;5053361;28;19963;-58
2023/09/13 08:30:29;;;;;;;;;;;23.70;92.90;;;;;;5053612;28;19916;-58
2023/09/13 08:32:55;;;;;;;;;;;23.70;92.90;;;;;;5053402;28;20372;-59
2023/09/13 08:35:20;;;;;;;;;;;23.70;92.90;;;;;;5053354;28;19909;-60
2023/09/13 08:37:46;;;;;;;;;;;23.70;92.90;;;;;;5053373;28;19996;-57
2023/09/13 08:40:11;;;;;;;;;;;23.70;93.00;;;;;;5035494;28;19913;-59
2023/09/13 08:42:39;;;;;;;;;;;23.70;93.00;;;;;;5053257;28;19947;-59
2023/09/13 08:45:04;;;;;;;;;;;23.70;93.00;;;;;;5053185;28;20481;-59
2023/09/13 08:47:31;;;;;;;;;;;23.70;93.00;;;;;;5052868;28;20144;-59
2023/09/13 08:49:58;;;;;;;;;;;23.70;93.00;;;;;;5053302;28;20355;-59
2023/09/13 08:52:24;;;;;;;;;;;23.70;93.00;;;;;;5053072;28;20399;-59
2023/09/13 08:54:50;;;;;;;;;;;23.70;93.00;;;;;;5053123;28;20025;-59
2023/09/13 08:57:16;;;;;;;;;;;23.70;93.00;;;;;;5055824;28;20372;-59
2023/09/13 08:59:42;;;;;;;;;;;23.70;93.00;;;;;;5057203;28;19916;-60
2023/09/13 09:02:12;;;;;;;;;;;23.70;93.10;;;;;;5056968;28;20421;-59
2023/09/13 09:04:38;;;;;;;;;;;23.70;93.10;;;;;;5056901;28;19917;-57
2023/09/13 09:07:05;;;;;;;;;;;23.70;93.10;;;;;;5056938;28;20249;-59
2023/09/13 09:09:31;;;;;;;;;;;23.70;93.30;;;;;;5056960;28;19960;-59
2023/09/13 09:11:59;;;;;;;;;;;23.70;93.10;;;;;;5056881;28;19991;-59
2023/09/13 09:14:26;;;;;;;;;;;23.70;93.10;;;;;;5056923;28;19919;-59
2023/09/13 09:16:52;;;;;;;;;;;23.70;93.10;;;;;;5056729;28;19909;-58
2023/09/13 09:19:17;;;;;;;;;;;23.70;93.10;;;;;;5057075;28;19909;-58
2023/09/13 09:21:43;;;;;;;;;;;23.80;93.10;;;;;;5056838;28;20019;-58
2023/09/13 09:24:08;;;;;;;;;;;23.70;93.10;;;;;;5056915;28;19967;-59
2023/09/13 09:26:34;;;;;;;;;;;23.70;93.10;;;;;;5056412;28;20085;-59
2023/09/13 09:29:12;;;;;;;;;;;23.80;93.20;;;;;;5056315;28;19909;-59
2023/09/13 09:31:39;;;;;;;;;;;23.80;93.20;;;;;;5056529;28;20347;-58
2023/09/13 09:34:05;;;;;;;;;;;23.80;93.20;;;;;;5056293;28;19916;-58
2023/09/13 09:36:34;;;;;;;;;;;23.80;93.20;;;;;;5056180;28;19909;-57
2023/09/13 09:39:03;;;;;;;;;;;23.80;93.20;;;;;;5056046;28;19908;-58
2023/09/13 09:41:32;;;;;;;;;;;23.80;93.20;;;;;;5043420;28;19925;-58
2023/09/13 09:43:58;;;;;;;;;;;23.80;93.20;;;;;;5034300;28;19943;-59
2023/09/13 09:46:23;;;;;;;;;;;23.80;93.20;;;;;;5034860;28;20403;-59
2023/09/13 09:48:52;;;;;;;;;;;23.80;93.20;;;;;;5056089;28;19931;-59
2023/09/13 09:51:18;;;;;;;;;;;23.80;93.20;;;;;;5055984;28;19909;-59
2023/09/13 09:53:44;;;;;;;;;;;23.80;93.20;;;;;;5056278;28;19916;-59
2023/09/13 09:56:13;;;;;;;;;;;23.80;93.20;;;;;;5055965;28;19931;-57
2023/09/13 09:58:38;;;;;;;;;;;23.80;93.20;;;;;;5056001;28;19947;-57
2023/09/13 10:01:04;;;;;;;;;;;23.80;93.20;;;;;;5055621;28;19909;-57
2023/09/13 10:03:33;;;;;;;;;;;23.80;93.20;;;;;;5055974;28;20438;-56
2023/09/13 10:06:07;;;;;;;;;;;23.80;93.20;;;;;;5070982;28;19909;-57
2023/09/13 10:08:37;;;;;;;;;;;23.80;93.20;;;;;;5053214;28;19927;-57
2023/09/13 10:11:02;;;;;;;;;;;23.80;93.20;;;;;;5040109;28;19913;-58
2023/09/13 10:13:30;;;;;;;;;;;23.80;93.20;;;;;;5060270;28;19916;-58
2023/09/13 10:15:55;;;;;;;;;;;23.80;93.20;;;;;;5068523;28;19916;-60
2023/09/13 10:18:21;;;;;;;;;;;23.80;93.20;;;;;;5054343;28;19959;-59
2023/09/13 10:20:47;;;;;;;;;;;23.80;93.20;;;;;;5066127;28;19966;-58
2023/09/13 10:23:13;;;;;;;;;;;23.80;93.30;;;;;;5071553;28;19999;-59
2023/09/13 10:25:40;;;;;;;;;;;23.70;93.30;;;;;;5055985;28;19913;-58
2023/09/13 10:28:07;;;;;;;;;;;23.80;93.30;;;;;;5067247;28;19912;-59
2023/09/13 10:30:33;;;;;;;;;;;23.80;93.40;;;;;;5075455;28;19988;-58
2023/09/13 10:32:59;;;;;;;;;;;23.80;93.40;;;;;;5063386;28;20026;-59
2023/09/13 10:35:28;;;;;;;;;;;23.80;93.30;;;;;;5053712;28;20003;-57
2023/09/13 10:37:59;;;;;;;;;;;23.80;93.40;;;;;;5054227;28;20059;-55
2023/09/13 10:40:32;;;;;;;;;;;23.80;93.40;;;;;;5053679;28;19912;-57
2023/09/13 10:42:57;;;;;;;;;;;23.80;93.40;;;;;;5053533;28;19913;-58
2023/09/13 10:45:24;;;;;;;;;;;23.80;93.40;;;;;;5053720;28;19974;-57
2023/09/13 10:47:50;;;;;;;;;;;23.80;93.40;;;;;;5041277;28;20380;-56
2023/09/13 10:50:16;;;;;;;;;;;23.80;93.40;;;;;;5038445;28;19974;-59
2023/09/13 10:52:43;;;;;;;;;;;23.80;93.40;;;;;;5054980;28;20356;-58
2023/09/13 10:55:09;;;;;;;;;;;23.80;93.40;;;;;;5053891;28;19909;-57
2023/09/13 10:57:35;;;;;;;;;;;23.80;93.40;;;;;;5043004;28;20443;-55
2023/09/13 11:00:05;;;;;;;;;;;23.80;93.30;;;;;;5021924;28;19961;-60
2023/09/13 11:02:33;;;;;;;;;;;23.80;93.40;;;;;;5045957;28;20244;-56
2023/09/13 11:04:58;;;;;;;;;;;23.80;93.40;;;;;;5037338;28;19917;-57
2023/09/13 11:07:24;;;;;;;;;;;23.80;93.40;;;;;;5034714;28;19921;-58
2023/09/13 11:09:49;;;;;;;;;;;23.70;93.30;;;;;;5034485;28;19959;-58
2023/09/13 11:12:15;;;;;;;;;;;23.80;93.40;;;;;;5034515;28;19913;-55
2023/09/13 11:14:47;;;;;;;;;;;23.80;93.40;;;;;;5049878;28;20270;-57
2023/09/13 11:17:34;;;;;;;;;;;23.80;93.30;;;;;;5053865;28;19995;-58
2023/09/13 11:20:18;;;;;;;;;;;23.80;93.30;;;;;;5053085;28;20221;-58
2023/09/13 11:22:43;;;;;;;;;;;23.80;93.30;;;;;;5054448;28;19939;-56
2023/09/13 11:25:11;;;;;;;;;;;23.80;93.30;;;;;;5035198;28;20482;-57
2023/09/13 11:27:37;;;;;;;;;;;23.80;93.30;;;;;;5032286;28;19913;-58
2023/09/13 11:30:04;;;;;;;;;;;23.80;93.40;;;;;;5041397;28;20413;-55
2023/09/13 11:32:30;;;;;;;;;;;23.80;93.30;;;;;;5046951;28;19940;-58
2023/09/13 11:34:56;;;;;;;;;;;23.80;93.30;;;;;;5054378;28;20081;-58
2023/09/13 11:37:25;;;;;;;;;;;23.80;93.40;;;;;;5033500;28;19967;-57
2023/09/13 11:39:54;;;;;;;;;;;23.70;93.30;;;;;;5032858;28;20003;-59
2023/09/13 11:42:27;;;;;;;;;;;23.70;93.30;;;;;;5033922;28;19928;-62
2023/09/13 11:44:53;;;;;;;;;;;23.80;93.20;;;;;;5054258;28;19917;-61
2023/09/13 11:47:19;;;;;;;;;;;23.80;93.10;;;;;;5052955;28;19917;-62
2023/09/13 11:49:44;;;;;;;;;;;23.70;93.10;;;;;;5052431;28;20256;-61
2023/09/13 11:52:10;;;;;;;;;;;23.80;93.10;;;;;;5032868;28;20004;-61
2023/09/13 11:54:50;;;;;;;;;;;23.80;93.20;;;;;;5034212;28;20359;-61
2023/09/13 11:57:16;;;;;;;;;;;23.80;93.20;;;;;;5033813;28;19932;-61
2023/09/13 11:59:41;;;;;;;;;;;23.70;93.20;;;;;;5033735;28;20360;-61
2023/09/13 12:02:08;;;;;;;;;;;23.70;93.20;;;;;;5033550;28;19995;-61
2023/09/13 12:04:34;;;;;;;;;;;23.70;93.20;;;;;;5033734;28;19992;-61
2023/09/13 12:06:59;;;;;;;;;;;23.70;93.20;;;;;;5033571;28;19909;-61
2023/09/13 12:09:25;;;;;;;;;;;23.70;93.20;;;;;;5033878;28;19913;-61
2023/09/13 12:11:52;;;;;;;;;;;23.70;93.20;;;;;;5033797;28;20371;-60
2023/09/13 12:14:18;;;;;;;;;;;23.70;93.20;;;;;;5033795;28;19909;-60
2023/09/13 12:16:47;;;;;;;;;;;23.70;93.20;;;;;;5033539;28;20387;-60
2023/09/13 12:19:13;;;;;;;;;;;23.70;93.20;;;;;;5033705;28;19916;-60
2023/09/13 12:21:42;;;;;;;;;;;23.70;93.20;;;;;;5033769;28;19909;-59
2023/09/13 12:24:12;;;;;;;;;;;23.70;93.20;;;;;;5033307;28;20016;-60
2023/09/13 12:26:38;;;;;;;;;;;23.70;93.20;;;;;;5034063;28;20004;-59
2023/09/13 12:29:04;;;;;;;;;;;23.70;93.20;;;;;;5033132;28;19916;-60
2023/09/13 12:31:30;;;;;;;;;;;23.70;93.30;;;;;;5035352;28;19936;-60
2023/09/13 12:33:55;;;;;;;;;;;23.70;93.20;;;;;;5019996;28;19959;-60
2023/09/13 12:36:21;;;;;;;;;;;23.70;93.30;;;;;;5037623;28;19909;-60
2023/09/13 12:38:48;;;;;;;;;;;23.70;93.20;;;;;;5037572;28;19916;-60
2023/09/13 12:41:20;;;;;;;;;;;23.70;93.30;;;;;;5037451;28;19909;-60
2023/09/13 12:43:49;;;;;;;;;;;23.70;93.20;;;;;;5037461;28;19920;-60
2023/09/13 12:46:20;;;;;;;;;;;23.70;93.30;;;;;;5037266;28;20047;-60
2023/09/13 12:48:45;;;;;;;;;;;23.70;93.30;;;;;;5037447;28;19929;-59
2023/09/13 12:51:12;;;;;;;;;;;23.70;93.20;;;;;;5037397;28;19909;-60
2023/09/13 12:53:38;;;;;;;;;;;23.70;93.30;;;;;;5019464;28;19917;-60
2023/09/13 12:56:04;;;;;;;;;;;23.70;93.30;;;;;;5036920;28;19909;-60
2023/09/13 12:58:30;;;;;;;;;;;23.70;93.20;;;;;;5036855;28;19909;-60
2023/09/13 13:00:56;;;;;;;;;;;23.70;93.30;;;;;;5036979;28;19990;-60
2023/09/13 13:03:28;;;;;;;;;;;23.70;93.30;;;;;;5037041;28;19909;-60
2023/09/13 13:05:54;;;;;;;;;;;23.70;93.30;;;;;;5036965;28;19909;-60
2023/09/13 13:08:19;;;;;;;;;;;23.70;93.30;;;;;;5037030;28;19939;-60
2023/09/13 13:10:52;;;;;;;;;;;23.70;93.30;;;;;;5019153;28;20448;-59
2023/09/13 13:13:18;;;;;;;;;;;23.70;93.30;;;;;;5036847;28;19913;-60
2023/09/13 13:15:43;;;;;;;;;;;23.70;93.30;;;;;;5036466;28;19909;-60
2023/09/13 13:18:09;;;;;;;;;;;23.70;93.30;;;;;;5036498;28;20219;-61
2023/09/13 13:20:34;;;;;;;;;;;23.70;93.30;;;;;;5036231;28;19920;-59
2023/09/13 13:23:04;;;;;;;;;;;23.70;93.30;;;;;;5036185;28;19909;-60
2023/09/13 13:25:30;;;;;;;;;;;23.70;93.30;;;;;;5036394;28;19978;-60
2023/09/13 13:27:55;;;;;;;;;;;23.70;93.30;;;;;;5036266;28;20356;-60
2023/09/13 13:30:21;;;;;;;;;;;23.70;93.20;;;;;;5036086;28;19996;-60
2023/09/13 13:32:47;;;;;;;;;;;23.70;93.20;;;;;;5036490;28;19909;-61
2023/09/13 13:35:12;;;;;;;;;;;23.70;93.30;;;;;;5036473;28;20363;-61
2023/09/13 13:37:43;;;;;;;;;;;23.70;93.30;;;;;;5036114;28;19909;-60
2023/09/13 13:40:08;;;;;;;;;;;23.70;93.20;;;;;;5036398;28;19909;-60
2023/09/13 13:42:34;;;;;;;;;;;23.70;93.20;;;;;;5035251;28;19915;-60
2023/09/13 13:44:59;;;;;;;;;;;23.70;93.20;;;;;;5036209;28;20328;-60
2023/09/13 13:47:25;;;;;;;;;;;23.70;93.30;;;;;;5036253;28;19976;-61
2023/09/13 13:49:51;;;;;;;;;;;23.70;93.20;;;;;;5018450;28;19909;-61
2023/09/13 13:52:16;;;;;;;;;;;23.70;93.20;;;;;;5035756;28;19972;-61
2023/09/13 13:54:42;;;;;;;;;;;23.70;93.20;;;;;;5018601;28;19948;-60
2023/09/13 13:57:07;;;;;;;;;;;23.70;93.20;;;;;;5036129;28;20356;-60
2023/09/13 13:59:33;;;;;;;;;;;23.70;93.20;;;;;;5036038;28;19956;-61
2023/09/13 14:01:58;;;;;;;;;;;23.70;93.20;;;;;;5036199;28;19959;-60
2023/09/13 14:04:24;;;;;;;;;;;23.70;93.20;;;;;;5035823;28;19925;-60
2023/09/13 14:06:49;;;;;;;;;;;23.70;93.20;;;;;;5018152;28;20063;-60
2023/09/13 14:09:16;;;;;;;;;;;23.70;93.20;;;;;;5035478;28;19914;-60
2023/09/13 14:11:42;;;;;;;;;;;23.70;93.30;;;;;;5035753;28;19916;-61